Bridgewater, Maine
Current Conditions -  °F | °C
As of 7:15 AM on Monday 22 Dec 2014 (Local Time) from KPQI Reporting Station
Overcast Overcast  
Wind Chill: 23°   Ceiling: 900
Heat Index: 23°   Visibility: 10mi
Dew Point: 14°   Wind: 0mph
Humidity: 68%   Direction: NA
Pressure: 30.4"   Gusts: NA
Location:  46.43°N, 67.84°W
Report Text: KPQI 221215Z AUTO 00000KT 10SM OVC009 M05/M10 A3040 RMK AO1
Loading
Personal Weather Stations






























Interactive Weather Map New forecast layout! Learn more

10-Day Weather Forecast

Advertisements
Track Severe Weather on mobile